Time;durP1;ratioP1;P1;durP2;ratioP2;P2;SDS_P1;SDS_P2;PMS_P1;PMS_P2;Temp;Humidity;BMP_temperature;BMP_pressure;BME280_temperature;BME280_humidity;BME280_pressure;Samples;Min_cycle;Max_cycle;Signal;HPM_P1;HPM_P2
2022/07/29 00:02:25;;;;;;;11.15;4.68;;;;;;;27.01;46.10;98046.66;4487796;31;20088;-79
2022/07/29 00:04:52;;;;;;;11.75;4.97;;;;;;;27.27;45.21;98049.09;4486745;32;20100;-79
2022/07/29 00:07:20;;;;;;;8.52;4.37;;;;;;;27.32;44.93;98055.53;4488296;32;20100;-79
2022/07/29 00:09:46;;;;;;;9.32;4.37;;;;;;;27.48;44.43;98051.19;4487668;31;20102;-79
2022/07/29 00:12:19;;;;;;;10.88;4.43;;;;;;;27.34;44.55;98047.44;4488049;31;20107;-79
2022/07/29 00:14:53;;;;;;;11.43;4.93;;;;;;;26.74;45.81;98046.06;4487985;31;20144;-79
2022/07/29 00:17:20;;;;;;;8.93;4.25;;;;;;;27.01;45.32;98042.22;4487963;31;20088;-79
2022/07/29 00:19:47;;;;;;;10.10;4.40;;;;;;;26.56;46.40;98048.03;4486763;32;20088;-79
2022/07/29 00:22:14;;;;;;;9.60;4.60;;;;;;;27.00;45.37;98042.34;4488043;31;20123;-79
2022/07/29 00:24:41;;;;;;;10.80;4.57;;;;;;;26.88;45.71;98046.34;4487401;31;20163;-79
2022/07/29 00:27:08;;;;;;;10.63;4.28;;;;;;;27.45;44.20;98043.59;4487886;31;20152;-79
2022/07/29 00:29:35;;;;;;;8.73;4.32;;;;;;;27.21;44.88;98044.47;4487584;31;20391;-79
2022/07/29 00:32:02;;;;;;;9.07;4.65;;;;;;;27.05;45.23;98030.31;4487826;31;20107;-79
2022/07/29 00:37:16;;;;;;;8.98;4.68;;;;;;;27.43;44.24;98027.81;4487041;31;20104;-79
2022/07/29 00:39:43;;;;;;;8.52;4.45;;;;;;;27.53;43.97;98025.78;4487895;31;20116;-79
2022/07/29 00:42:10;;;;;;;8.95;4.28;;;;;;;27.68;43.73;98036.53;4487748;31;20120;-79
2022/07/29 00:44:39;;;;;;;9.55;4.70;;;;;;;27.65;43.75;98029.78;4486045;32;20480;-79
2022/07/29 00:47:07;;;;;;;9.80;4.90;;;;;;;27.14;45.02;98032.94;4487533;31;20155;-79
2022/07/29 00:49:34;;;;;;;9.38;4.50;;;;;;;26.85;45.58;98036.94;4487917;31;20084;-79
2022/07/29 00:52:05;;;;;;;9.93;4.70;;;;;;;26.94;45.32;98027.16;4473159;32;20163;-79
2022/07/29 00:54:33;;;;;;;9.45;4.53;;;;;;;26.92;45.45;98029.97;4486471;32;20100;-79
2022/07/29 00:57:03;;;;;;;9.55;5.00;;;;;;;27.49;44.23;98026.31;4487835;31;20103;-79
2022/07/29 00:59:32;;;;;;;9.45;4.55;;;;;;;27.47;44.32;98026.50;4487411;31;20434;-79
2022/07/29 01:02:02;;;;;;;9.50;4.40;;;;;;;27.56;43.70;98037.91;4487711;31;20103;-79
2022/07/29 01:04:30;;;;;;;9.73;4.07;;;;;;;27.12;44.59;98033.09;4487183;31;20092;-79
2022/07/29 01:06:58;;;;;;;10.57;4.65;;;;;;;27.00;44.81;98037.06;4486449;32;20144;-79
2022/07/29 01:09:25;;;;;;;8.48;4.28;;;;;;;26.86;45.21;98033.28;4487602;31;20152;-79
2022/07/29 01:12:13;;;;;;;9.80;4.60;;;;;;;26.61;46.15;98032.50;4487357;31;20080;-79
2022/07/29 01:14:41;;;;;;;8.20;4.70;;;;;;;26.65;46.33;98033.81;4486361;32;20111;-79
2022/07/29 01:17:31;;;;;;;8.65;4.57;;;;;;;26.80;45.77;98023.41;4487747;31;20096;-79
2022/07/29 01:20:12;;;;;;;9.55;4.60;;;;;;;26.63;46.38;98024.41;4487307;32;20111;-79
2022/07/29 01:23:20;;;;;;;9.57;4.72;;;;;;;26.43;47.02;98030.03;4487627;31;20068;-79
2022/07/29 01:26:11;;;;;;;9.50;4.73;;;;;;;26.85;45.93;98030.81;4487144;31;20156;-79
2022/07/29 01:28:46;;;;;;;8.60;4.70;;;;;;;26.99;45.56;98023.00;4487620;32;20092;-79
2022/07/29 01:31:38;;;;;;;9.23;4.95;;;;;;;27.52;44.67;98025.97;4487489;31;20148;-79
2022/07/29 01:34:43;;;;;;;9.38;4.40;;;;;;;27.07;45.87;98028.31;4487241;31;20191;-79
2022/07/29 01:37:26;;;;;;;8.00;4.28;;;;;;;27.72;44.17;98029.06;4487398;31;20097;-79
2022/07/29 01:39:55;;;;;;;8.43;4.55;;;;;;;27.05;45.58;98022.34;4487100;31;20114;-79
2022/07/29 01:42:42;;;;;;;9.88;5.05;;;;;;;27.23;44.92;98018.66;4487423;31;20201;-79
2022/07/29 01:45:15;;;;;;;10.27;5.00;;;;;;;27.02;45.09;98021.88;4487248;31;20124;-79
2022/07/29 01:47:49;;;;;;;9.85;4.90;;;;;;;27.23;44.42;98023.97;4485630;31;20438;-79
2022/07/29 01:50:17;;;;;;;7.93;4.35;;;;;;;27.20;44.21;98021.63;4486149;32;20482;-79
2022/07/29 01:52:59;;;;;;;8.38;4.15;;;;;;;27.05;44.21;98024.19;4486242;32;20163;-79
2022/07/29 01:55:29;;;;;;;9.30;4.53;;;;;;;26.65;45.80;98019.75;4485692;32;20123;-79
2022/07/29 01:57:57;;;;;;;8.52;4.65;;;;;;;26.70;45.47;98018.28;4487277;31;20108;-79
2022/07/29 02:00:25;;;;;;;8.60;4.55;;;;;;;26.49;46.10;98016.16;4486030;32;20171;-79
2022/07/29 02:02:52;;;;;;;8.48;4.45;;;;;;;26.19;47.20;98011.50;4485621;32;20167;-79
2022/07/29 02:05:22;;;;;;;11.12;4.45;;;;;;;26.26;47.31;98007.19;4485898;32;20084;-79
2022/07/29 02:07:50;;;;;;;9.90;4.62;;;;;;;26.20;47.72;98013.97;4486852;31;20100;-79
2022/07/29 02:10:20;;;;;;;10.38;4.72;;;;;;;26.22;47.50;98009.34;4487073;31;20187;-79
2022/07/29 02:12:54;;;;;;;10.43;4.90;;;;;;;26.73;46.32;97999.41;4487214;31;20085;-79
2022/07/29 02:15:22;;;;;;;9.93;4.78;;;;;;;26.98;45.73;97994.88;4485457;32;20085;-79
2022/07/29 02:17:56;;;;;;;8.65;4.43;;;;;;;27.44;44.29;98008.31;4485993;32;20104;-79
2022/07/29 02:20:25;;;;;;;8.63;4.55;;;;;;;27.37;44.21;98002.88;4485971;32;20126;-79
2022/07/29 02:22:52;;;;;;;9.70;4.50;;;;;;;27.12;44.87;98003.97;4485502;32;20100;-79
2022/07/29 02:25:21;;;;;;;10.48;4.85;;;;;;;26.91;45.27;98001.84;4485571;32;20073;-79
2022/07/29 02:27:50;;;;;;;11.27;4.80;;;;;;;26.80;45.35;98004.87;4487004;31;20145;-79
2022/07/29 02:30:18;;;;;;;11.18;4.62;;;;;;;26.25;46.67;98009.00;4485262;32;20117;-79
2022/07/29 02:32:46;;;;;;;9.20;4.68;;;;;;;26.53;46.19;97998.94;4486936;31;20119;-79
2022/07/29 02:35:15;;;;;;;8.95;5.05;;;;;;;26.86;45.27;98000.69;4486750;31;20076;-79
2022/07/29 02:37:43;;;;;;;9.23;4.70;;;;;;;27.03;44.65;98012.94;4485335;32;20175;-79
2022/07/29 02:40:15;;;;;;;9.73;4.62;;;;;;;26.48;45.72;98016.31;4485487;32;20160;-79
2022/07/29 02:42:44;;;;;;;8.93;4.70;;;;;;;26.21;46.47;98009.50;4486322;32;20092;-79
2022/07/29 02:45:11;;;;;;;10.00;5.05;;;;;;;26.43;46.23;98011.50;4486528;31;20081;-79
2022/07/29 02:47:43;;;;;;;10.20;4.93;;;;;;;26.14;46.72;98011.16;4485281;32;20109;-79
2022/07/29 02:50:21;;;;;;;8.57;4.72;;;;;;;26.84;45.03;98003.53;4486285;31;20156;-79
2022/07/29 02:52:54;;;;;;;10.73;4.97;;;;;;;26.89;45.07;98006.47;4485435;32;20166;-79
2022/07/29 02:55:34;;;;;;;8.05;4.60;;;;;;;26.62;45.96;98010.34;4485273;32;20093;-79
2022/07/29 02:58:06;;;;;;;9.43;4.80;;;;;;;26.93;45.52;98001.69;4485040;32;20520;-79
2022/07/29 03:00:36;;;;;;;9.25;4.97;;;;;;;27.00;45.32;98000.81;4487133;32;20112;-79
2022/07/29 03:03:07;;;;;;;10.00;5.10;;;;;;;26.30;47.07;98013.00;4488662;31;20102;-79
2022/07/29 03:05:35;;;;;;;10.77;5.18;;;;;;;25.75;48.81;98005.66;4486939;32;20116;-79
2022/07/29 03:08:05;;;;;;;10.65;5.18;;;;;;;25.02;51.22;98007.03;4488470;31;20108;-79
2022/07/29 03:10:33;;;;;;;8.73;4.50;;;;;;;25.86;49.26;98013.28;4487260;32;20435;-79
2022/07/29 03:13:00;;;;;;;8.98;5.00;;;;;;;26.76;46.33;98004.34;4487013;32;20164;-79
2022/07/29 03:15:27;;;;;;;12.23;5.35;;;;;;;26.76;46.06;98000.88;4487103;32;20130;-79
2022/07/29 03:17:55;;;;;;;8.85;4.55;;;;;;;26.12;47.76;98007.84;4488213;31;20104;-79
2022/07/29 03:20:22;;;;;;;10.45;4.80;;;;;;;26.46;46.02;98013.81;4488424;31;20123;-79
2022/07/29 03:22:49;;;;;;;10.32;4.65;;;;;;;26.36;46.26;98018.41;4487215;32;20156;-79
2022/07/29 03:25:18;;;;;;;9.65;4.70;;;;;;;26.12;46.55;98016.59;4486751;32;20103;-79
2022/07/29 03:27:46;;;;;;;8.88;4.57;;;;;;;26.16;46.24;98017.94;4488376;31;20108;-79
2022/07/29 03:30:14;;;;;;;9.27;4.80;;;;;;;26.76;45.03;98007.00;4488322;31;20172;-79
2022/07/29 03:32:48;;;;;;;9.32;4.85;;;;;;;26.97;44.81;98014.41;4488110;31;20089;-79
2022/07/29 03:35:19;;;;;;;9.00;4.60;;;;;;;25.54;48.43;98019.28;4486963;32;20080;-79
2022/07/29 03:37:46;;;;;;;9.98;4.85;;;;;;;25.54;48.67;98020.13;4488438;31;20108;-79
2022/07/29 03:40:24;;;;;;;10.43;4.90;;;;;;;26.10;47.50;98023.88;4487913;31;20128;-79
2022/07/29 03:42:51;;;;;;;9.15;4.78;;;;;;;26.41;46.63;98028.56;4488274;31;20098;-79
2022/07/29 03:45:19;;;;;;;10.15;5.00;;;;;;;26.31;46.76;98033.97;4486863;32;20127;-79
2022/07/29 03:47:49;;;;;;;9.23;4.90;;;;;;;26.35;46.97;98027.34;4486371;32;20088;-79
2022/07/29 03:50:21;;;;;;;8.20;4.70;;;;;;;26.29;46.97;98027.22;4488240;31;20149;-79
2022/07/29 03:52:49;;;;;;;8.90;4.65;;;;;;;26.61;45.85;98026.41;4488190;31;20167;-79
2022/07/29 03:55:16;;;;;;;9.40;4.85;;;;;;;26.07;46.98;98033.97;4488039;31;20200;-79
2022/07/29 03:57:44;;;;;;;10.45;5.57;;;;;;;25.98;47.52;98032.31;4488214;31;20156;-79
2022/07/29 04:00:11;;;;;;;9.80;5.07;;;;;;;;;;4487750;31;20175;-79
2022/07/29 04:02:39;;;;;;;10.88;5.70;;;;;;;23.98;53.34;98037.69;4488268;31;20088;-79
2022/07/29 04:05:12;;;;;;;10.73;5.28;;;;;;;24.07;53.10;98033.31;4486812;32;20113;-79
2022/07/29 04:07:39;;;;;;;10.52;5.25;;;;;;;25.11;50.22;98026.37;4487605;31;20097;-79
2022/07/29 04:10:07;;;;;;;10.05;4.93;;;;;;;26.51;46.46;98037.97;4487522;31;20104;-78
2022/07/29 04:12:34;;;;;;;10.18;4.93;;;;;;;25.89;48.21;98034.09;4487580;31;20155;-78
2022/07/29 04:15:03;;;;;;;9.98;5.20;;;;;;;26.35;47.55;98047.69;4487564;31;20085;-83
2022/07/29 04:17:30;;;;;;;9.15;4.60;;;;;;;26.92;46.78;98045.88;4488145;31;20108;-82
2022/07/29 04:19:57;;;;;;;8.75;5.10;;;;;;;27.38;45.66;98035.47;4487879;31;20089;-82
2022/07/29 04:22:24;;;;;;;10.95;6.00;;;;;;;27.80;44.24;98035.13;4487708;31;20163;-82
2022/07/29 04:24:53;;;;;;;9.30;5.12;;;;;;;27.38;44.20;98038.97;4487813;31;20103;-82
2022/07/29 04:27:20;;;;;;;9.85;5.00;;;;;;;28.02;43.16;98038.00;4487848;32;20114;-82
2022/07/29 04:29:47;;;;;;;12.07;4.78;;;;;;;28.54;42.16;98035.47;4487593;31;20355;-82
2022/07/29 04:32:23;;;;;;;8.40;4.60;;;;;;;29.09;40.89;98036.94;4480733;31;227403;-82
2022/07/29 04:34:51;;;;;;;9.30;4.75;;;;;;;29.21;40.84;98039.94;4487707;31;20096;-82
2022/07/29 04:37:18;;;;;;;9.15;5.07;;;;;;;29.44;40.73;98037.19;4487636;31;20093;-82
2022/07/29 04:39:45;;;;;;;10.05;4.85;;;;;;;29.16;40.57;98043.16;4487941;31;20443;-82
2022/07/29 04:42:12;;;;;;;10.75;4.97;;;;;;;27.87;43.86;98032.63;4487459;31;20143;-82
2022/07/29 04:44:39;;;;;;;9.25;4.75;;;;;;;28.95;41.16;98032.44;4487633;31;20120;-82
2022/07/29 04:47:09;;;;;;;8.27;4.70;;;;;;;28.35;41.77;98038.59;4487511;31;20450;-82
2022/07/29 04:49:39;;;;;;;11.73;5.03;;;;;;;27.06;44.47;98036.44;4487626;31;20521;-82
2022/07/29 04:52:06;;;;;;;9.20;4.70;;;;;;;27.78;43.20;98052.22;4486617;32;20099;-82
2022/07/29 04:54:33;;;;;;;10.27;4.53;;;;;;;28.52;41.12;98040.94;4486458;32;20084;-82
2022/07/29 04:57:00;;;;;;;10.30;5.10;;;;;;;27.36;44.29;98043.59;4487339;32;20111;-82
2022/07/29 04:59:27;;;;;;;10.85;4.70;;;;;;;28.31;42.06;98042.63;4487805;31;20104;-82
2022/07/29 05:01:54;;;;;;;11.27;4.37;;;;;;;27.90;43.04;98054.31;4487651;31;20167;-82
2022/07/29 05:04:21;;;;;;;8.57;4.50;;;;;;;28.51;41.92;98049.09;4487281;31;20145;-82
2022/07/29 05:06:48;;;;;;;9.07;5.00;;;;;;;30.14;38.04;98060.56;4487541;31;20167;-82
2022/07/29 05:09:15;;;;;;;11.05;5.00;;;;;;;31.90;35.12;98055.00;4487708;31;20156;-82
2022/07/29 05:11:42;;;;;;;8.15;4.60;;;;;;;33.09;33.02;98065.84;4487152;31;20144;-82
2022/07/29 05:14:09;;;;;;;10.48;4.62;;;;;;;34.15;31.32;98062.78;4487502;31;20152;-82
2022/07/29 05:16:36;;;;;;;7.80;4.30;;;;;;;34.21;30.52;98068.09;4487673;31;20397;-82
2022/07/29 05:19:03;;;;;;;8.93;4.50;;;;;;;33.44;31.13;98058.34;4487314;31;20163;-82
2022/07/29 05:21:30;;;;;;;8.13;4.40;;;;;;;30.23;35.69;98062.91;4487260;31;20159;-82
2022/07/29 05:23:57;;;;;;;10.05;4.65;;;;;;;29.79;36.94;98057.69;4487429;31;20081;-82
2022/07/29 05:26:24;;;;;;;12.63;4.40;;;;;;;29.26;38.08;98056.19;4487179;31;20100;-82
2022/07/29 05:28:51;;;;;;;8.90;4.50;;;;;;;31.33;34.86;98058.84;4487573;31;20083;-82
2022/07/29 05:31:18;;;;;;;10.85;4.50;;;;;;;30.87;35.35;98058.56;4487124;31;20167;-82
2022/07/29 05:33:45;;;;;;;11.45;5.35;;;;;;;29.54;37.72;98054.53;4487427;31;20089;-82
2022/07/29 05:36:12;;;;;;;12.32;5.65;;;;;;;28.50;39.58;98060.72;4487514;31;20156;-83
2022/07/29 05:38:39;;;;;;;9.75;4.70;;;;;;;28.63;39.94;98060.94;4487126;31;20087;-82
2022/07/29 05:41:06;;;;;;;10.93;5.45;;;;;;;29.39;38.53;98067.81;4486206;32;20610;-82
2022/07/29 05:43:33;;;;;;;11.77;5.50;;;;;;;30.13;37.26;98070.38;4487292;31;20106;-82
2022/07/29 05:46:00;;;;;;;10.18;5.65;;;;;;;31.17;35.68;98062.66;4486983;32;20089;-82
2022/07/29 05:48:27;;;;;;;13.02;5.80;;;;;;;28.82;39.18;98070.22;4486970;31;20114;-81
2022/07/29 05:50:54;;;;;;;14.10;5.62;;;;;;;29.75;37.39;98071.53;4487246;31;20106;-81
2022/07/29 05:53:22;;;;;;;11.18;4.97;;;;;;;30.23;36.85;98078.88;4486781;31;20148;-82
2022/07/29 05:55:51;;;;;;;10.93;5.10;;;;;;;29.98;36.89;98074.03;4483507;31;20116;-81
2022/07/29 05:58:18;;;;;;;11.88;5.00;;;;;;;29.82;37.63;98073.28;4485088;31;20096;-82
2022/07/29 06:00:45;;;;;;;12.23;5.72;;;;;;;29.69;37.96;98077.63;4486559;31;20613;-82
2022/07/29 06:03:12;;;;;;;14.07;5.47;;;;;;;29.57;37.72;98069.28;4486602;31;20089;-82
2022/07/29 06:05:39;;;;;;;14.60;5.57;;;;;;;30.18;37.12;98075.13;4486456;31;20101;-82
2022/07/29 06:08:07;;;;;;;10.18;5.57;;;;;;;28.85;39.88;98074.34;4485203;32;20151;-82
2022/07/29 06:10:37;;;;;;;11.88;5.45;;;;;;;28.10;41.25;98067.94;4486307;31;20088;-82
2022/07/29 06:13:05;;;;;;;13.35;5.90;;;;;;;29.74;38.71;98069.91;4486178;31;20250;-82
2022/07/29 06:15:32;;;;;;;12.13;5.60;;;;;;;29.17;38.82;98071.38;4486181;31;20120;-81
2022/07/29 06:17:59;;;;;;;15.48;6.30;;;;;;;30.20;37.42;98081.06;4485716;32;20114;-82
2022/07/29 06:20:30;;;;;;;12.35;6.20;;;;;;;30.48;36.50;98076.62;4485697;31;20167;-82
2022/07/29 06:22:59;;;;;;;12.68;6.62;;;;;;;29.93;37.40;98072.78;4486343;32;20145;-82
2022/07/29 06:25:34;;;;;;;14.07;6.80;;;;;;;29.46;37.90;98075.88;4486219;31;20116;-82
2022/07/29 06:28:03;;;;;;;12.60;6.12;;;;;;;29.86;38.07;98077.19;4485253;31;20473;-82
2022/07/29 06:30:30;;;;;;;12.82;6.25;;;;;;;30.51;36.88;98075.44;4486004;31;20117;-81
2022/07/29 06:32:57;;;;;;;12.90;6.50;;;;;;;31.53;35.39;98077.63;4486300;31;20103;-82
2022/07/29 06:35:24;;;;;;;15.20;6.68;;;;;;;30.92;35.80;98080.91;4485088;31;20148;-83
2022/07/29 06:38:07;;;;;;;12.80;6.28;;;;;;;30.00;37.58;98080.03;4485635;31;20133;-82
2022/07/29 06:41:00;;;;;;;11.10;6.43;;;;;;;29.14;38.76;98082.38;4485637;32;20092;-82
2022/07/29 06:43:31;;;;;;;13.73;6.72;;;;;;;30.35;36.86;98075.69;4486018;31;20083;-81
2022/07/29 06:46:01;;;;;;;12.35;6.32;;;;;;;29.83;38.39;98071.44;4486245;31;20093;-81
2022/07/29 06:48:28;;;;;;;12.98;6.07;;;;;;;30.91;36.15;98075.78;4484438;31;20100;-81
2022/07/29 06:50:55;;;;;;;12.13;6.07;;;;;;;31.81;34.09;98069.56;4485636;31;20450;-81
2022/07/29 06:53:23;;;;;;;10.82;5.65;;;;;;;31.01;35.34;98079.75;4485991;31;20164;-81
2022/07/29 06:55:50;;;;;;;12.63;6.00;;;;;;;31.77;33.94;98071.78;4485429;31;20115;-81
2022/07/29 06:58:20;;;;;;;11.50;5.68;;;;;;;32.21;33.32;98076.62;4484659;31;20160;-81
2022/07/29 07:00:47;;;;;;;10.98;5.78;;;;;;;32.85;31.91;98067.28;4485664;31;20089;-81
2022/07/29 07:03:16;;;;;;;10.68;5.60;;;;;;;31.89;33.07;98064.84;4485379;31;20422;-81
2022/07/29 07:05:43;;;;;;;11.75;5.65;;;;;;;32.48;32.41;98066.84;4485806;31;20455;-81
2022/07/29 07:08:11;;;;;;;11.02;6.20;;;;;;;32.89;31.68;98071.19;4483708;32;20235;-80
2022/07/29 07:10:38;;;;;;;10.52;6.00;;;;;;;33.65;30.75;98067.94;4484999;31;20092;-81
2022/07/29 07:13:05;;;;;;;12.80;6.30;;;;;;;32.57;32.07;98058.66;4484440;32;20148;-83
2022/07/29 07:15:33;;;;;;;11.32;5.40;;;;;;;33.28;31.04;98061.44;4485559;31;20092;-81
2022/07/29 07:18:15;;;;;;;10.05;5.25;;;;;;;32.91;31.36;98060.31;4484632;32;20164;-82
2022/07/29 07:20:42;;;;;;;14.48;6.05;;;;;;;31.52;32.90;98063.47;4485333;31;20080;-82
2022/07/29 07:23:10;;;;;;;10.55;4.90;;;;;;;33.67;30.03;98058.66;4485423;31;20124;-81
2022/07/29 07:25:37;;;;;;;11.82;5.62;;;;;;;33.92;30.15;98056.13;4484911;31;20096;-82
2022/07/29 07:28:04;;;;;;;11.25;5.32;;;;;;;34.41;29.33;98057.25;4484629;31;20118;-82
2022/07/29 07:30:31;;;;;;;9.52;4.90;;;;;;;33.84;29.58;98058.19;4484699;31;20175;-82
2022/07/29 07:32:59;;;;;;;7.90;4.35;;;;;;;35.43;27.13;98057.81;4485402;31;20143;-82
2022/07/29 07:35:27;;;;;;;11.27;5.60;;;;;;;34.67;28.31;98058.09;4485303;31;20155;-83
2022/07/29 07:37:55;;;;;;;9.77;5.47;;;;;;;33.99;28.82;98052.56;4484240;31;20126;-81
2022/07/29 07:40:22;;;;;;;14.18;5.93;;;;;;;33.36;30.04;98051.38;4484995;31;20159;-81
2022/07/29 07:42:50;;;;;;;10.57;5.10;;;;;;;34.90;28.18;98062.88;4485184;31;20084;-81
2022/07/29 07:45:17;;;;;;;9.63;4.72;;;;;;;35.40;27.10;98063.59;4484748;31;20451;-81
2022/07/29 07:47:46;;;;;;;13.98;4.62;;;;;;;36.01;25.76;98059.97;4486383;31;20092;-81
2022/07/29 07:50:13;;;;;;;8.93;4.60;;;;;;;36.67;25.49;98063.53;4487328;31;20487;-80
2022/07/29 07:52:57;;;;;;;11.12;4.75;;;;;;;34.77;27.10;98063.75;4487417;31;20084;-79
2022/07/29 07:55:25;;;;;;;12.82;4.53;;;;;;;35.75;26.32;98057.63;4487520;31;20108;-81
2022/07/29 07:57:53;;;;;;;8.52;4.15;;;;;;;37.07;23.85;98058.31;4486252;31;20430;-79
2022/07/29 08:00:21;;;;;;;9.73;3.97;;;;;;;36.92;24.27;98057.97;4486780;31;20119;-79
2022/07/29 08:02:49;;;;;;;8.95;4.60;;;;;;;35.88;25.31;98060.16;4487356;31;20488;-79
2022/07/29 08:05:17;;;;;;;8.10;4.00;;;;;;;36.08;24.77;98059.88;4487290;31;20164;-79
2022/07/29 08:07:45;;;;;;;10.43;4.40;;;;;;;35.23;26.38;98074.09;4486447;31;20450;-80
2022/07/29 08:10:51;;;;;;;11.38;4.75;;;;;;;35.62;26.04;98066.63;4487238;31;20103;-79
2022/07/29 08:13:08;;;;;;;9.77;4.32;;;;;;;35.10;25.95;98066.19;4487170;31;20084;-80
2022/07/29 08:15:35;;;;;;;9.75;4.62;;;;;;;35.21;26.59;98064.63;4486117;32;20109;-80
2022/07/29 08:18:02;;;;;;;11.77;4.20;;;;;;;34.77;27.13;98066.44;4486496;31;20465;-80
2022/07/29 08:20:35;;;;;;;7.25;3.97;;;;;;;35.60;25.97;98058.81;4486737;31;20093;-79
2022/07/29 08:23:06;;;;;;;11.60;4.70;;;;;;;35.51;25.32;98065.53;4487248;31;20076;-81
2022/07/29 08:25:33;;;;;;;16.58;4.50;;;;;;;35.59;25.34;98069.78;4486103;32;20206;-80
2022/07/29 08:28:04;;;;;;;13.65;4.72;;;;;;;35.69;25.20;98062.03;4486299;31;20159;-79
2022/07/29 08:30:32;;;;;;;9.73;3.80;;;;;;;36.09;25.21;98064.22;4487263;31;20093;-80
2022/07/29 08:32:59;;;;;;;8.57;3.45;;;;;;;36.81;22.69;98070.34;4487360;31;20091;-79
2022/07/29 08:35:27;;;;;;;9.55;3.92;;;;;;;36.89;22.84;98075.38;4486705;31;20119;-79
2022/07/29 08:38:03;;;;;;;10.85;5.00;;;;;;;35.75;25.23;98073.72;4486478;31;20092;-80
2022/07/29 08:40:39;;;;;;;10.60;4.68;;;;;;;35.06;26.35;98067.66;4486530;31;20137;-80
2022/07/29 08:43:08;;;;;;;11.98;4.85;;;;;;;34.91;27.13;98075.25;4487198;31;20092;-81
2022/07/29 08:45:48;;;;;;;7.15;3.97;;;;;;;35.20;26.76;98071.00;4487104;31;20586;-80
2022/07/29 08:48:17;;;;;;;8.85;4.32;;;;;;;35.22;26.32;98069.78;4485601;31;20195;-80
2022/07/29 08:50:45;;;;;;;10.85;4.78;;;;;;;34.89;26.38;98070.09;4486662;31;20159;-79
2022/07/29 08:53:16;;;;;;;8.60;4.03;;;;;;;34.25;27.48;98087.22;4486232;31;20080;-79
2022/07/29 08:55:45;;;;;;;9.35;4.60;;;;;;;35.19;25.32;98080.09;4486850;31;20111;-80
2022/07/29 08:58:13;;;;;;;7.85;4.40;;;;;;;35.46;25.18;98078.00;4485387;31;20084;-80
2022/07/29 09:00:43;;;;;;;9.48;4.00;;;;;;;35.14;25.77;98070.06;4486934;31;20391;-80
2022/07/29 09:03:14;;;;;;;8.88;4.03;;;;;;;35.34;26.26;98084.06;4485239;32;20068;-80
2022/07/29 09:05:42;;;;;;;8.48;4.00;;;;;;;35.15;26.16;98078.91;4486617;31;20421;-80
2022/07/29 09:08:14;;;;;;;9.85;4.40;;;;;;;35.84;24.40;98075.88;4486320;31;20141;-81
2022/07/29 09:10:42;;;;;;;8.57;4.72;;;;;;;35.91;25.01;98079.31;4486592;31;20171;-80
2022/07/29 09:13:09;;;;;;;7.43;4.00;;;;;;;36.31;23.86;98062.63;4486745;31;20131;-80
2022/07/29 09:15:36;;;;;;;8.80;4.30;;;;;;;35.32;25.51;98079.97;4486856;31;20136;-81
2022/07/29 09:18:03;;;;;;;7.60;4.32;;;;;;;35.85;24.33;98074.00;4486207;31;20136;-80
2022/07/29 09:21:57;;;;;;;7.03;3.72;;;;;;;36.29;24.31;98078.16;4485254;32;20104;-80
2022/07/29 09:23:17;;;;;;;8.65;4.15;;;;;;;36.89;22.59;98080.75;4486457;31;20076;-80
2022/07/29 09:25:50;;;;;;;8.82;3.95;;;;;;;37.34;22.75;98070.25;4486831;31;20115;-80
2022/07/29 09:28:17;;;;;;;8.15;4.10;;;;;;;36.23;23.37;98074.53;4485985;31;20096;-81
2022/07/29 09:30:56;;;;;;;8.65;4.62;;;;;;;36.12;24.17;98069.12;4486533;31;20168;-81
2022/07/29 09:33:23;;;;;;;7.80;3.37;;;;;;;36.10;23.79;98066.66;4486401;31;20089;-79
2022/07/29 09:36:05;;;;;;;10.18;4.55;;;;;;;35.99;23.26;98074.69;4486717;31;20383;-81
2022/07/29 09:38:33;;;;;;;8.80;4.03;;;;;;;36.08;24.05;98081.37;4486204;31;20107;-80
2022/07/29 09:41:02;;;;;;;9.85;4.00;;;;;;;36.37;23.53;98059.06;4487941;31;20089;-80
2022/07/29 09:44:24;;;;;;;9.90;4.32;;;;;;;36.43;23.33;98063.50;4484805;32;20152;-81
2022/07/29 09:47:06;;;;;;;12.25;4.40;;;;;;;36.87;23.52;98063.22;4485534;32;20125;-81
2022/07/29 09:49:35;;;;;;;9.05;4.07;;;;;;;36.32;23.92;98061.59;4486288;31;20692;-81
2022/07/29 09:52:08;;;;;;;7.47;4.28;;;;;;;35.63;24.02;98058.41;4486002;31;20104;-81
2022/07/29 09:54:38;;;;;;;8.48;3.90;;;;;;;36.51;23.10;98062.34;4486839;31;20080;-82
2022/07/29 09:57:12;;;;;;;7.53;3.80;;;;;;;37.42;22.09;98060.97;4485291;31;20456;-80
2022/07/29 09:59:39;;;;;;;12.07;3.78;;;;;;;36.88;22.51;98054.09;4485151;32;20100;-81
2022/07/29 10:02:15;;;;;;;10.13;3.92;;;;;;;37.66;21.53;98066.31;4486501;31;20102;-84
2022/07/29 10:04:49;;;;;;;9.88;4.00;;;;;;;37.46;20.89;98061.34;4485985;31;20495;-84
2022/07/29 10:07:16;;;;;;;10.32;4.25;;;;;;;36.40;23.22;98058.59;4485790;31;20096;-83
2022/07/29 10:09:54;;;;;;;9.70;4.18;;;;;;;36.54;22.69;98053.00;4485392;31;20163;-83
2022/07/29 10:12:21;;;;;;;9.90;4.12;;;;;;;36.59;23.42;98053.16;4486049;31;20180;-83
2022/07/29 10:14:48;;;;;;;10.77;3.70;;;;;;;36.76;22.29;98043.31;4486195;31;20077;-82
2022/07/29 10:17:20;;;;;;;10.20;4.30;;;;;;;36.43;23.00;98042.00;4486103;31;20127;-82
2022/07/29 10:19:50;;;;;;;10.27;4.00;;;;;;;36.22;23.88;98039.84;4486257;31;20101;-81
2022/07/29 10:22:17;;;;;;;10.68;4.20;;;;;;;36.38;22.96;98041.09;4485098;32;20084;-82
2022/07/29 10:25:04;;;;;;;7.40;3.60;;;;;;;37.22;22.14;98037.16;4486023;31;20088;-81
2022/07/29 10:27:31;;;;;;;9.13;4.03;;;;;;;37.35;21.37;98034.22;4485132;31;20112;-81
2022/07/29 10:29:58;;;;;;;9.13;3.92;;;;;;;36.56;23.31;98040.97;4486248;31;20167;-81
2022/07/29 10:32:42;;;;;;;9.10;4.03;;;;;;;37.41;21.84;98037.81;4486136;31;20171;-81
2022/07/29 10:35:25;;;;;;;9.45;4.00;;;;;;;38.60;20.76;98039.75;4484527;32;20114;-81
2022/07/29 10:38:20;;;;;;;9.15;4.15;;;;;;;37.78;21.26;98042.87;4485390;31;20092;-81
2022/07/29 10:43:50;;;;;;;8.23;3.58;;;;;;;38.30;20.87;98037.38;4485930;31;20139;-82
2022/07/29 10:46:18;;;;;;;8.70;4.12;;;;;;;37.24;22.29;98036.91;4484580;32;20434;-81
2022/07/29 10:49:04;;;;;;;7.22;3.42;;;;;;;37.61;21.43;98027.47;4484957;32;20520;-82
2022/07/29 10:52:04;;;;;;;8.90;3.80;;;;;;;36.89;22.48;98020.78;4486102;31;20080;-81
2022/07/29 10:54:47;;;;;;;9.40;3.90;;;;;;;38.09;21.86;98033.50;4484082;32;20158;-81
2022/07/29 10:57:30;;;;;;;8.27;3.70;;;;;;;37.40;21.91;98027.28;4484743;31;20096;-81
2022/07/29 11:00:27;;;;;;;7.47;4.18;;;;;;;36.96;21.89;98025.00;4486253;31;20101;-81
2022/07/29 11:02:57;;;;;;;8.63;4.03;;;;;;;37.03;22.59;98024.88;4485632;31;20092;-82
2022/07/29 11:05:29;;;;;;;14.20;4.12;;;;;;;37.33;23.37;98016.69;4485745;31;20108;-81
2022/07/29 11:08:12;;;;;;;6.60;3.53;;;;;;;37.53;22.22;98011.69;4484951;31;20092;-81
2022/07/29 11:10:47;;;;;;;7.25;3.87;;;;;;;37.87;22.02;98004.56;4486072;31;20092;-81
2022/07/29 11:13:43;;;;;;;7.97;3.60;;;;;;;37.87;21.13;98001.06;4485623;31;20112;-82
2022/07/29 11:16:12;;;;;;;6.00;3.30;;;;;;;37.95;21.44;98003.34;4485444;32;20085;-82
2022/07/29 11:19:13;;;;;;;7.18;3.60;;;;;;;37.70;21.37;97997.47;4485226;32;20110;-81
2022/07/29 11:21:42;;;;;;;6.00;3.40;;;;;;;36.91;22.28;97991.81;4487488;31;20111;-81
2022/07/29 11:24:34;;;;;;;6.93;3.40;;;;;;;37.44;20.89;97988.09;4486571;32;20168;-81
2022/07/29 11:27:16;;;;;;;8.35;3.35;;;;;;;37.32;20.62;97988.94;4487036;31;20374;-82
2022/07/29 11:29:54;;;;;;;7.40;3.40;;;;;;;37.47;20.47;97987.63;4487304;31;20106;-82
2022/07/29 11:32:24;;;;;;;8.30;3.70;;;;;;;37.50;20.63;97990.63;4486627;32;20104;-81
2022/07/29 11:35:23;;;;;;;7.28;3.50;;;;;;;36.31;21.47;97982.03;4487712;31;20093;-81
2022/07/29 11:38:22;;;;;;;7.55;3.37;;;;;;;36.99;21.55;97981.50;4486781;31;20104;-82
2022/07/29 11:41:20;;;;;;;8.35;3.45;;;;;;;37.51;20.48;97975.31;4487586;31;20124;-81
2022/07/29 11:43:53;;;;;;;8.40;3.85;;;;;;;36.75;21.62;97971.78;4485636;31;20107;-81
2022/07/29 11:46:47;;;;;;;9.02;3.83;;;;;;;36.75;21.77;97974.50;4487150;31;20542;-81
2022/07/29 11:49:19;;;;;;;10.05;3.85;;;;;;;36.89;22.26;97977.78;4487320;31;20136;-82
2022/07/29 11:52:00;;;;;;;6.75;3.62;;;;;;;36.36;22.79;97973.31;4487370;31;20072;-85
2022/07/29 11:54:35;;;;;;;8.68;3.80;;;;;;;36.32;22.37;97967.56;4487314;31;20096;-84
2022/07/29 11:57:22;;;;;;;9.35;4.68;;;;;;;35.28;23.83;97963.44;4485884;31;20149;-83
2022/07/29 12:00:06;;;;;;;7.97;3.75;;;;;;;35.63;23.73;97966.34;4487588;31;20097;-82